Time,TemperatureF,DewpointF,PressureIn,WindDirection,WindDirectionDegrees,WindSpeedMPH,WindSpeedGustMPH,Humidity,HourlyPrecipIn,Conditions,Clouds,dailyrainin,SoftwareType,DateUTC
2013-09-25 00:02:00,59.4,48.4,29.75,West,270,3.0,4.0,52,0.00,,,0.00,meteohub,2013-09-25 07:02:00,
2013-09-25 00:07:00,59.2,48.2,29.75,North,0,1.0,4.0,52,0.00,,,0.00,meteohub,2013-09-25 07:07:00,
2013-09-25 00:12:00,59.2,48.6,29.75,North,0,4.0,4.0,52,0.00,,,0.00,meteohub,2013-09-25 07:12:00,
2013-09-25 00:17:00,59.2,48.6,29.75,West,270,3.0,4.0,52,0.00,,,0.00,meteohub,2013-09-25 07:17:00,
2013-09-25 00:22:00,59.0,48.4,29.75,West,270,2.0,10.0,52,0.00,,,0.00,meteohub,2013-09-25 07:22:00,
2013-09-25 00:27:00,59.2,48.6,29.75,North,0,0.0,10.0,52,0.00,,,0.00,meteohub,2013-09-25 07:27:00,
2013-09-25 00:33:00,58.8,48.7,29.75,West,270,0.0,7.0,52,0.00,,,0.00,meteohub,2013-09-25 07:33:00,
2013-09-25 00:38:00,58.8,48.7,29.75,North,0,1.0,7.0,52,0.00,,,0.00,meteohub,2013-09-25 07:38:00,
2013-09-25 00:43:00,58.6,48.6,29.75,North,0,0.0,3.0,52,0.00,,,0.00,meteohub,2013-09-25 07:43:00,
2013-09-25 00:48:00,58.6,48.9,29.74,North,0,0.0,3.0,52,0.00,,,0.00,meteohub,2013-09-25 07:48:00,
2013-09-25 00:53:00,58.5,48.7,29.74,East,90,2.0,4.0,52,0.00,,,0.00,meteohub,2013-09-25 07:53:00,
2013-09-25 00:58:00,58.3,48.6,29.73,West,270,2.0,4.0,52,0.00,,,0.00,meteohub,2013-09-25 07:58:00,
2013-09-25 01:03:00,58.1,48.4,29.74,West,270,0.0,4.0,53,0.00,,,0.00,meteohub,2013-09-25 08:03:00,
2013-09-25 01:08:00,57.6,48.2,29.74,West,270,0.0,3.0,53,0.00,,,0.00,meteohub,2013-09-25 08:08:00,
2013-09-25 01:13:00,57.0,48.4,29.74,West,270,0.0,3.0,53,0.00,,,0.00,meteohub,2013-09-25 08:13:00,
2013-09-25 01:18:00,57.2,48.2,29.74,SW,225,2.0,2.0,53,0.00,,,0.00,meteohub,2013-09-25 08:18:00,
2013-09-25 01:24:00,57.6,48.2,29.74,South,180,5.0,5.0,53,0.00,,,0.00,meteohub,2013-09-25 08:24:00,
2013-09-25 01:29:00,57.7,48.0,29.75,North,0,2.0,4.0,53,0.00,,,0.00,meteohub,2013-09-25 08:29:00,
2013-09-25 01:34:00,57.6,47.8,29.75,West,270,1.0,5.0,54,0.00,,,0.00,meteohub,2013-09-25 08:34:00,
2013-09-25 01:39:00,57.2,47.5,29.74,West,270,0.0,5.0,54,0.00,,,0.00,meteohub,2013-09-25 08:39:00,
2013-09-25 01:44:00,57.4,48.0,29.74,North,0,0.0,4.0,54,0.00,,,0.00,meteohub,2013-09-25 08:44:00,
2013-09-25 01:49:00,57.0,48.0,29.74,West,270,0.0,3.0,54,0.00,,,0.00,meteohub,2013-09-25 08:49:00,
2013-09-25 01:54:00,57.4,48.4,29.74,West,270,3.0,3.0,54,0.00,,,0.00,meteohub,2013-09-25 08:54:00,
2013-09-25 01:59:00,57.4,48.4,29.74,North,0,0.0,3.0,54,0.00,,,0.00,meteohub,2013-09-25 08:59:00,
2013-09-25 02:04:00,57.0,48.4,29.74,West,270,2.0,3.0,54,0.00,,,0.00,meteohub,2013-09-25 09:04:00,
2013-09-25 02:09:00,57.2,48.2,29.74,West,270,0.0,3.0,54,0.00,,,0.00,meteohub,2013-09-25 09:09:00,
2013-09-25 02:14:00,57.9,48.9,29.74,West,270,3.0,3.0,54,0.00,,,0.00,meteohub,2013-09-25 09:14:00,
2013-09-25 02:20:00,57.9,49.3,29.74,North,0,4.0,8.0,54,0.00,,,0.00,meteohub,2013-09-25 09:20:00,
2013-09-25 02:25:00,57.9,48.9,29.74,South,180,3.0,8.0,53,0.00,,,0.00,meteohub,2013-09-25 09:25:00,
2013-09-25 02:30:00,57.7,49.1,29.74,West,270,4.0,8.0,53,0.00,,,0.00,meteohub,2013-09-25 09:30:00,
2013-09-25 02:35:00,57.4,48.7,29.74,West,270,0.0,5.0,53,0.00,,,0.00,meteohub,2013-09-25 09:35:00,
2013-09-25 02:40:00,57.2,48.9,29.74,SW,225,0.0,5.0,54,0.00,,,0.00,meteohub,2013-09-25 09:40:00,
2013-09-25 02:45:00,56.8,48.9,29.74,West,270,0.0,5.0,54,0.00,,,0.00,meteohub,2013-09-25 09:45:00,
2013-09-25 02:50:00,56.5,48.9,29.74,South,180,0.0,4.0,54,0.00,,,0.00,meteohub,2013-09-25 09:50:00,
2013-09-25 02:55:00,56.1,48.7,29.74,South,180,0.0,0.0,54,0.00,,,0.00,meteohub,2013-09-25 09:55:00,
2013-09-25 03:00:00,55.8,48.7,29.73,North,0,0.0,0.0,54,0.00,,,0.00,meteohub,2013-09-25 10:00:00,
2013-09-25 03:06:00,55.8,48.7,29.73,North,0,0.0,0.0,54,0.00,,,0.00,meteohub,2013-09-25 10:06:00,
2013-09-25 03:11:00,57.2,49.6,29.73,North,0,0.0,0.0,54,0.00,,,0.00,meteohub,2013-09-25 10:11:00,
2013-09-25 03:16:00,56.8,49.3,29.73,North,0,2.0,0.0,54,0.00,,,0.00,meteohub,2013-09-25 10:16:00,
2013-09-25 03:21:00,57.0,49.5,29.73,West,270,1.0,2.0,54,0.00,,,0.00,meteohub,2013-09-25 10:21:00,
2013-09-25 03:26:00,56.8,49.3,29.73,West,270,2.0,2.0,54,0.00,,,0.00,meteohub,2013-09-25 10:26:00,
2013-09-25 03:31:00,56.8,49.3,29.72,West,270,2.0,6.0,54,0.00,,,0.00,meteohub,2013-09-25 10:31:00,
2013-09-25 03:36:00,56.7,49.1,29.72,North,0,2.0,6.0,54,0.00,,,0.00,meteohub,2013-09-25 10:36:00,
2013-09-25 03:41:00,56.7,49.1,29.72,North,0,0.0,6.0,54,0.00,,,0.00,meteohub,2013-09-25 10:41:00,
2013-09-25 03:46:00,56.7,49.1,29.72,West,270,0.0,4.0,54,0.00,,,0.00,meteohub,2013-09-25 10:46:00,
2013-09-25 03:51:00,56.8,49.3,29.72,NW,315,1.0,4.0,54,0.00,,,0.00,meteohub,2013-09-25 10:51:00,
2013-09-25 03:56:00,57.0,49.5,29.72,West,270,5.0,5.0,54,0.00,,,0.00,meteohub,2013-09-25 10:56:00,
2013-09-25 04:01:00,57.2,48.9,29.72,West,270,3.0,5.0,54,0.00,,,0.00,meteohub,2013-09-25 11:01:00,
2013-09-25 04:07:00,57.4,49.1,29.72,West,270,6.0,6.0,54,0.00,,,0.00,meteohub,2013-09-25 11:07:00,
2013-09-25 04:12:00,57.2,48.9,29.72,SW,225,6.0,6.0,54,0.00,,,0.00,meteohub,2013-09-25 11:12:00,
2013-09-25 04:17:00,57.4,49.1,29.72,West,270,4.0,7.0,54,0.00,,,0.00,meteohub,2013-09-25 11:17:00,
2013-09-25 04:22:00,57.4,49.1,29.71,West,270,7.0,7.0,54,0.00,,,0.00,meteohub,2013-09-25 11:22:00,
2013-09-25 04:27:00,57.6,48.9,29.71,West,270,3.0,7.0,54,0.00,,,0.00,meteohub,2013-09-25 11:27:00,
2013-09-25 04:32:00,57.4,49.1,29.71,West,270,4.0,7.0,54,0.00,,,0.00,meteohub,2013-09-25 11:32:00,
2013-09-25 04:37:00,57.4,49.1,29.71,NW,315,7.0,7.0,54,0.00,,,0.00,meteohub,2013-09-25 11:37:00,
2013-09-25 04:42:00,57.4,48.4,29.71,SW,225,4.0,7.0,54,0.00,,,0.00,meteohub,2013-09-25 11:42:00,
2013-09-25 04:47:00,57.6,48.2,29.71,NE,45,3.0,7.0,54,0.00,,,0.00,meteohub,2013-09-25 11:47:00,
2013-09-25 04:52:00,57.6,48.2,29.72,West,270,3.0,7.0,54,0.00,,,0.00,meteohub,2013-09-25 11:52:00,
2013-09-25 04:57:00,57.4,48.0,29.72,North,0,2.0,8.0,54,0.00,,,0.00,meteohub,2013-09-25 11:57:00,
2013-09-25 05:02:00,57.4,48.4,29.72,SE,135,0.0,8.0,54,0.00,,,0.00,meteohub,2013-09-25 12:02:00,
2013-09-25 05:07:00,57.4,48.4,29.72,SE,135,0.0,8.0,54,0.00,,,0.00,meteohub,2013-09-25 12:07:00,
2013-09-25 05:12:00,57.6,48.9,29.72,North,0,2.0,7.0,54,0.00,,,0.00,meteohub,2013-09-25 12:12:00,
2013-09-25 05:17:00,57.7,49.1,29.71,North,0,1.0,8.0,54,0.00,,,0.00,meteohub,2013-09-25 12:17:00,
2013-09-25 05:22:00,57.6,48.9,29.72,North,0,2.0,8.0,54,0.00,,,0.00,meteohub,2013-09-25 12:22:00,
2013-09-25 05:27:00,57.2,48.6,29.71,West,270,2.0,8.0,54,0.00,,,0.00,meteohub,2013-09-25 12:27:00,
2013-09-25 05:32:00,57.0,48.7,29.71,North,0,0.0,7.0,54,0.00,,,0.00,meteohub,2013-09-25 12:32:00,
2013-09-25 05:37:00,56.7,48.4,29.72,West,270,0.0,4.0,54,0.00,,,0.00,meteohub,2013-09-25 12:37:00,
2013-09-25 05:42:00,56.5,48.4,29.72,North,0,0.0,2.0,55,0.00,,,0.00,meteohub,2013-09-25 12:42:00,
2013-09-25 05:47:00,56.5,48.4,29.72,West,270,0.0,2.0,55,0.00,,,0.00,meteohub,2013-09-25 12:47:00,
2013-09-25 05:54:00,56.5,48.7,29.72,North,0,0.0,2.0,55,0.00,,,0.00,meteohub,2013-09-25 12:54:00,
2013-09-25 05:59:00,55.9,48.2,29.72,North,0,0.0,1.0,55,0.00,,,0.00,meteohub,2013-09-25 12:59:00,
2013-09-25 06:04:00,55.8,48.0,29.72,East,90,0.0,0.0,55,0.00,,,0.00,meteohub,2013-09-25 13:04:00,
2013-09-25 06:09:00,55.9,48.6,29.72,West,270,0.0,1.0,55,0.00,,,0.00,meteohub,2013-09-25 13:09:00,
2013-09-25 06:14:00,55.6,48.2,29.72,North,0,0.0,1.0,55,0.00,,,0.00,meteohub,2013-09-25 13:14:00,
2013-09-25 06:19:00,55.4,48.0,29.72,West,270,0.0,1.0,55,0.00,,,0.00,meteohub,2013-09-25 13:19:00,
2013-09-25 06:24:00,55.0,47.3,29.73,West,270,0.0,0.0,55,0.00,,,0.00,meteohub,2013-09-25 13:24:00,
2013-09-25 06:29:00,54.7,47.3,29.72,West,270,2.0,0.0,55,0.00,,,0.00,meteohub,2013-09-25 13:29:00,
2013-09-25 06:34:00,55.0,47.3,29.73,North,0,0.0,0.0,55,0.00,,,0.00,meteohub,2013-09-25 13:34:00,
2013-09-25 06:40:00,54.5,47.1,29.73,North,0,0.0,2.0,55,0.00,,,0.00,meteohub,2013-09-25 13:40:00,
2013-09-25 06:45:00,54.3,46.9,29.72,North,0,0.0,2.0,55,0.00,,,0.00,meteohub,2013-09-25 13:45:00,
2013-09-25 06:50:00,54.0,46.9,29.73,West,270,0.0,2.0,55,0.00,,,0.00,meteohub,2013-09-25 13:50:00,
2013-09-25 06:55:00,54.5,47.1,29.73,West,270,0.0,2.0,55,0.00,,,0.00,meteohub,2013-09-25 13:55:00,
2013-09-25 07:00:00,54.3,47.3,29.73,West,270,0.0,2.0,55,0.00,,,0.00,meteohub,2013-09-25 14:00:00,
2013-09-25 07:05:00,54.3,47.3,29.73,West,270,0.0,2.0,55,0.00,,,0.00,meteohub,2013-09-25 14:05:00,
2013-09-25 07:10:00,54.3,46.9,29.72,North,0,2.0,2.0,55,0.00,,,0.00,meteohub,2013-09-25 14:10:00,
2013-09-25 07:15:00,54.3,46.9,29.73,North,0,0.0,3.0,55,0.00,,,0.00,meteohub,2013-09-25 14:15:00,
2013-09-25 07:20:00,54.9,47.1,29.73,West,270,0.0,3.0,55,0.00,,,0.00,meteohub,2013-09-25 14:20:00,
2013-09-25 07:25:00,56.1,48.4,29.73,North,0,1.0,3.0,55,0.00,,,0.00,meteohub,2013-09-25 14:25:00,
2013-09-25 07:31:00,56.3,47.8,29.73,North,0,1.0,3.0,55,0.00,,,0.00,meteohub,2013-09-25 14:31:00,
2013-09-25 07:36:00,56.7,47.7,29.73,North,0,0.0,3.0,55,0.00,,,0.00,meteohub,2013-09-25 14:36:00,
2013-09-25 07:41:00,57.0,48.0,29.74,North,0,0.0,2.0,55,0.00,,,0.00,meteohub,2013-09-25 14:41:00,
2013-09-25 07:46:00,57.4,47.7,29.73,SW,225,2.0,3.0,55,0.00,,,0.00,meteohub,2013-09-25 14:46:00,
2013-09-25 07:51:00,57.9,48.2,29.73,West,270,5.0,5.0,55,0.00,,,0.00,meteohub,2013-09-25 14:51:00,
2013-09-25 07:56:00,58.1,48.0,29.74,West,270,4.0,8.0,55,0.00,,,0.00,meteohub,2013-09-25 14:56:00,
2013-09-25 08:01:00,58.3,47.8,29.74,NW,315,2.0,8.0,55,0.00,,,0.00,meteohub,2013-09-25 15:01:00,
2013-09-25 08:06:00,58.6,48.2,29.74,North,0,2.0,8.0,55,0.00,,,0.00,meteohub,2013-09-25 15:06:00,
2013-09-25 08:11:00,58.8,48.2,29.74,North,0,1.0,4.0,55,0.00,,,0.00,meteohub,2013-09-25 15:11:00,
2013-09-25 08:16:00,59.0,47.7,29.74,West,270,4.0,4.0,55,0.00,,,0.00,meteohub,2013-09-25 15:16:00,
2013-09-25 08:21:00,59.5,48.2,29.74,SW,225,4.0,6.0,55,0.00,,,0.00,meteohub,2013-09-25 15:21:00,
2013-09-25 08:26:00,59.7,48.0,29.74,North,0,3.0,6.0,55,0.00,,,0.00,meteohub,2013-09-25 15:26:00,
2013-09-25 08:32:00,59.9,48.0,29.73,NE,45,3.0,6.0,55,0.00,,,0.00,meteohub,2013-09-25 15:32:00,
2013-09-25 08:37:00,60.1,48.2,29.74,South,180,5.0,8.0,55,0.00,,,0.00,meteohub,2013-09-25 15:37:00,
2013-09-25 08:42:00,60.4,48.2,29.73,North,0,1.0,8.0,54,0.00,,,0.00,meteohub,2013-09-25 15:42:00,
2013-09-25 08:47:00,60.6,48.7,29.74,West,270,2.0,6.0,54,0.00,,,0.00,meteohub,2013-09-25 15:47:00,
2013-09-25 08:52:00,60.8,48.2,29.74,North,0,3.0,6.0,54,0.00,,,0.00,meteohub,2013-09-25 15:52:00,
2013-09-25 08:57:00,61.0,48.4,29.73,NE,45,1.0,4.0,54,0.00,,,0.00,meteohub,2013-09-25 15:57:00,
2013-09-25 09:02:00,61.7,49.5,29.74,North,0,0.0,4.0,54,0.00,,,0.00,meteohub,2013-09-25 16:02:00,
2013-09-25 09:07:00,62.2,49.1,29.74,West,270,2.0,11.0,54,0.00,,,0.00,meteohub,2013-09-25 16:07:00,
2013-09-25 09:12:00,62.2,48.6,29.74,North,0,4.0,11.0,54,0.00,,,0.00,meteohub,2013-09-25 16:12:00,
2013-09-25 09:17:00,62.6,48.0,29.74,North,0,3.0,11.0,54,0.00,,,0.00,meteohub,2013-09-25 16:17:00,
2013-09-25 09:22:00,64.2,49.1,29.74,East,90,1.0,9.0,54,0.00,,,0.00,meteohub,2013-09-25 16:22:00,
2013-09-25 09:27:00,63.7,47.7,29.74,North,0,7.0,7.0,54,0.00,,,0.00,meteohub,2013-09-25 16:27:00,
2013-09-25 09:32:00,64.6,48.6,29.75,SW,225,4.0,7.0,54,0.00,,,0.00,meteohub,2013-09-25 16:32:00,
2013-09-25 09:37:00,64.4,47.8,29.75,North,0,2.0,7.0,53,0.00,,,0.00,meteohub,2013-09-25 16:37:00,
2013-09-25 09:42:00,65.3,48.7,29.74,North,0,0.0,7.0,53,0.00,,,0.00,meteohub,2013-09-25 16:42:00,
2013-09-25 09:47:00,65.8,49.3,29.75,North,0,2.0,4.0,53,0.00,,,0.00,meteohub,2013-09-25 16:47:00,
2013-09-25 09:52:00,66.6,48.4,29.74,North,0,1.0,3.0,53,0.00,,,0.00,meteohub,2013-09-25 16:52:00,
2013-09-25 09:57:00,66.4,47.7,29.74,East,90,2.0,3.0,53,0.00,,,0.00,meteohub,2013-09-25 16:57:00,
2013-09-25 10:02:00,66.6,47.8,29.74,NE,45,2.0,3.0,52,0.00,,,0.00,meteohub,2013-09-25 17:02:00,
2013-09-25 10:07:00,66.9,46.6,29.74,East,90,4.0,4.0,52,0.00,,,0.00,meteohub,2013-09-25 17:07:00,
2013-09-25 10:12:00,68.4,47.3,29.74,West,270,4.0,4.0,52,0.00,,,0.00,meteohub,2013-09-25 17:12:00,
2013-09-25 10:17:00,68.4,46.8,29.74,West,270,2.0,4.0,52,0.00,,,0.00,meteohub,2013-09-25 17:17:00,
2013-09-25 10:22:00,68.5,45.1,29.73,NE,45,2.0,4.0,52,0.00,,,0.00,meteohub,2013-09-25 17:22:00,
2013-09-25 10:27:00,66.9,45.0,29.74,North,0,2.0,4.0,52,0.00,,,0.00,meteohub,2013-09-25 17:27:00,
2013-09-25 10:32:00,67.3,45.1,29.74,North,0,3.0,7.0,52,0.00,,,0.00,meteohub,2013-09-25 17:32:00,
2013-09-25 10:37:00,67.6,45.5,29.73,East,90,5.0,7.0,51,0.00,,,0.00,meteohub,2013-09-25 17:37:00,
2013-09-25 10:42:00,69.1,46.8,29.73,NE,45,4.0,7.0,50,0.00,,,0.00,meteohub,2013-09-25 17:42:00,
2013-09-25 10:47:00,68.2,44.8,29.74,West,270,4.0,5.0,50,0.00,,,0.00,meteohub,2013-09-25 17:47:00,
2013-09-25 10:52:00,69.6,46.2,29.73,NW,315,7.0,8.0,50,0.00,,,0.00,meteohub,2013-09-25 17:52:00,
2013-09-25 10:57:00,69.8,45.7,29.74,North,0,3.0,8.0,50,0.00,,,0.00,meteohub,2013-09-25 17:57:00,
2013-09-25 11:02:00,70.3,46.2,29.73,West,270,5.0,8.0,50,0.00,,,0.00,meteohub,2013-09-25 18:02:00,
2013-09-25 11:07:00,69.6,45.0,29.73,North,0,2.0,7.0,50,0.00,,,0.00,meteohub,2013-09-25 18:07:00,
2013-09-25 11:12:00,71.2,46.4,29.73,NE,45,7.0,8.0,50,0.00,,,0.00,meteohub,2013-09-25 18:12:00,
2013-09-25 11:17:00,70.0,43.2,29.73,East,90,4.0,8.0,49,0.00,,,0.00,meteohub,2013-09-25 18:17:00,
2013-09-25 11:22:00,70.2,43.3,29.73,North,0,4.0,11.0,49,0.00,,,0.00,meteohub,2013-09-25 18:22:00,
2013-09-25 11:27:00,69.1,43.2,29.73,NW,315,2.0,11.0,49,0.00,,,0.00,meteohub,2013-09-25 18:27:00,
2013-09-25 11:32:00,70.0,41.7,29.73,NW,315,3.0,8.0,52,0.00,,,0.00,meteohub,2013-09-25 18:32:00,
2013-09-25 11:37:00,68.7,41.4,29.73,North,0,2.0,9.0,49,0.00,,,0.00,meteohub,2013-09-25 18:37:00,
2013-09-25 11:42:00,69.4,42.8,29.73,North,0,6.0,9.0,49,0.00,,,0.00,meteohub,2013-09-25 18:42:00,
2013-09-25 11:47:00,69.4,42.8,29.73,North,0,8.0,9.0,49,0.00,,,0.00,meteohub,2013-09-25 18:47:00,
2013-09-25 11:52:00,70.7,43.9,29.73,North,0,6.0,8.0,48,0.00,,,0.00,meteohub,2013-09-25 18:52:00,
2013-09-25 11:57:00,69.8,45.0,29.73,North,0,3.0,8.0,48,0.00,,,0.00,meteohub,2013-09-25 18:57:00,
2013-09-25 12:02:00,70.9,46.6,29.73,NE,45,3.0,8.0,48,0.00,,,0.00,meteohub,2013-09-25 19:02:00,
2013-09-25 12:07:00,72.3,45.3,29.73,East,90,4.0,8.0,48,0.00,,,0.00,meteohub,2013-09-25 19:07:00,
2013-09-25 12:12:00,70.5,45.7,29.72,North,0,2.0,8.0,48,0.00,,,0.00,meteohub,2013-09-25 19:12:00,
2013-09-25 12:17:00,71.1,46.8,29.72,North,0,2.0,8.0,48,0.00,,,0.00,meteohub,2013-09-25 19:17:00,
2013-09-25 12:22:00,68.9,44.2,29.72,North,0,4.0,8.0,48,0.00,,,0.00,meteohub,2013-09-25 19:22:00,
2013-09-25 12:27:00,68.7,45.9,29.72,East,90,4.0,8.0,48,0.00,,,0.00,meteohub,2013-09-25 19:27:00,
2013-09-25 12:32:00,71.1,48.0,29.72,East,90,4.0,6.0,48,0.00,,,0.00,meteohub,2013-09-25 19:32:00,
2013-09-25 12:37:00,71.2,46.9,29.72,North,0,3.0,7.0,48,0.00,,,0.00,meteohub,2013-09-25 19:37:00,
2013-09-25 12:42:00,71.1,46.8,29.72,North,0,3.0,8.0,48,0.00,,,0.00,meteohub,2013-09-25 19:42:00,
2013-09-25 12:47:00,71.6,46.6,29.72,North,0,4.0,8.0,49,0.00,,,0.00,meteohub,2013-09-25 19:47:00,
2013-09-25 12:52:00,72.3,47.3,29.71,North,0,2.0,5.0,49,0.00,,,0.00,meteohub,2013-09-25 19:52:00,
2013-09-25 12:57:00,71.2,46.4,29.71,North,0,3.0,5.0,49,0.00,,,0.00,meteohub,2013-09-25 19:57:00,
2013-09-25 13:02:00,67.5,44.8,29.71,East,90,5.0,5.0,49,0.00,,,0.00,meteohub,2013-09-25 20:02:00,
2013-09-25 13:07:00,69.3,47.7,29.72,West,270,2.0,5.0,52,0.00,,,0.00,meteohub,2013-09-25 20:07:00,
2013-09-25 13:12:00,70.7,47.7,29.71,North,0,1.0,5.0,49,0.00,,,0.00,meteohub,2013-09-25 20:12:00,
2013-09-25 13:17:00,70.9,48.6,29.71,East,90,2.0,5.0,49,0.00,,,0.00,meteohub,2013-09-25 20:17:00,
2013-09-25 13:22:00,72.3,48.6,29.71,SW,225,2.0,6.0,49,0.00,,,0.00,meteohub,2013-09-25 20:22:00,
2013-09-25 13:27:00,70.3,47.5,29.70,NE,45,3.0,6.0,49,0.00,,,0.00,meteohub,2013-09-25 20:27:00,
2013-09-25 13:32:00,73.8,51.1,29.70,North,0,2.0,6.0,49,0.00,,,0.00,meteohub,2013-09-25 20:32:00,
2013-09-25 13:37:00,70.2,47.3,29.70,NW,315,3.0,4.0,49,0.00,,,0.00,meteohub,2013-09-25 20:37:00,
2013-09-25 13:42:00,69.8,47.5,29.70,North,0,3.0,4.0,48,0.00,,,0.00,meteohub,2013-09-25 20:42:00,
2013-09-25 13:47:00,71.2,48.7,29.70,NW,315,4.0,4.0,49,0.00,,,0.00,meteohub,2013-09-25 20:47:00,
2013-09-25 13:52:00,72.3,49.1,29.70,North,0,4.0,4.0,49,0.00,,,0.00,meteohub,2013-09-25 20:52:00,
2013-09-25 13:57:00,72.3,48.6,29.70,NE,45,6.0,7.0,49,0.00,,,0.00,meteohub,2013-09-25 20:57:00,
2013-09-25 14:02:00,72.3,48.6,29.70,NE,45,2.0,8.0,49,0.00,,,0.00,meteohub,2013-09-25 21:02:00,
2013-09-25 14:07:00,70.7,48.4,29.70,North,0,2.0,8.0,49,0.00,,,0.00,meteohub,2013-09-25 21:07:00,
2013-09-25 14:12:00,70.9,47.8,29.70,North,0,3.0,8.0,49,0.00,,,0.00,meteohub,2013-09-25 21:12:00,
2013-09-25 14:17:00,71.6,47.8,29.69,NW,315,4.0,8.0,49,0.00,,,0.00,meteohub,2013-09-25 21:17:00,
2013-09-25 14:22:00,72.0,47.7,29.70,West,270,7.0,10.0,50,0.00,,,0.00,meteohub,2013-09-25 21:22:00,
2013-09-25 14:27:00,71.6,47.3,29.69,North,0,2.0,10.0,50,0.00,,,0.00,meteohub,2013-09-25 21:27:00,
2013-09-25 14:32:00,71.4,48.4,29.69,SW,225,3.0,7.0,50,0.00,,,0.00,meteohub,2013-09-25 21:32:00,
2013-09-25 14:37:00,71.1,48.0,29.69,NW,315,4.0,7.0,50,0.00,,,0.00,meteohub,2013-09-25 21:37:00,
2013-09-25 14:42:00,71.2,47.7,29.69,NW,315,2.0,7.0,50,0.00,,,0.00,meteohub,2013-09-25 21:42:00,
2013-09-25 14:47:00,71.4,47.8,29.69,North,0,4.0,5.0,50,0.00,,,0.00,meteohub,2013-09-25 21:47:00,
2013-09-25 14:52:00,70.9,47.8,29.68,North,0,2.0,8.0,50,0.00,,,0.00,meteohub,2013-09-25 21:52:00,
2013-09-25 14:57:00,70.0,46.4,29.69,West,270,11.0,11.0,50,0.00,,,0.00,meteohub,2013-09-25 21:57:00,
2013-09-25 15:02:00,70.9,47.8,29.68,North,0,4.0,11.0,51,0.00,,,0.00,meteohub,2013-09-25 22:02:00,
2013-09-25 15:07:00,70.3,46.8,29.69,North,0,4.0,11.0,51,0.00,,,0.00,meteohub,2013-09-25 22:07:00,
2013-09-25 15:12:00,69.6,47.3,29.68,North,0,2.0,11.0,50,0.00,,,0.00,meteohub,2013-09-25 22:12:00,
2013-09-25 15:17:00,69.3,46.4,29.68,West,270,5.0,6.0,50,0.00,,,0.00,meteohub,2013-09-25 22:17:00,
2013-09-25 15:22:00,70.3,47.5,29.68,North,0,4.0,7.0,50,0.00,,,0.00,meteohub,2013-09-25 22:22:00,
2013-09-25 15:27:00,70.7,47.1,29.68,North,0,2.0,7.0,50,0.00,,,0.00,meteohub,2013-09-25 22:27:00,
2013-09-25 15:32:00,72.7,48.2,29.68,West,270,4.0,8.0,50,0.00,,,0.00,meteohub,2013-09-25 22:32:00,
2013-09-25 15:37:00,70.0,47.1,29.68,North,0,4.0,8.0,49,0.00,,,0.00,meteohub,2013-09-25 22:37:00,
2013-09-25 15:42:00,71.2,48.2,29.68,NE,45,4.0,8.0,49,0.00,,,0.00,meteohub,2013-09-25 22:42:00,
2013-09-25 15:47:00,70.9,47.8,29.68,West,270,5.0,6.0,49,0.00,,,0.00,meteohub,2013-09-25 22:47:00,
2013-09-25 15:52:00,69.1,47.5,29.67,North,0,3.0,6.0,51,0.00,,,0.00,meteohub,2013-09-25 22:52:00,
2013-09-25 15:57:00,70.3,47.5,29.67,SW,225,3.0,8.0,48,0.00,,,0.00,meteohub,2013-09-25 22:57:00,
2013-09-25 16:02:00,68.5,45.7,29.67,West,270,7.0,8.0,48,0.00,,,0.00,meteohub,2013-09-25 23:02:00,
2013-09-25 16:07:00,70.2,47.3,29.67,SW,225,4.0,8.0,48,0.00,,,0.00,meteohub,2013-09-25 23:07:00,
2013-09-25 16:12:00,69.4,47.1,29.67,SW,225,4.0,8.0,48,0.00,,,0.00,meteohub,2013-09-25 23:12:00,
2013-09-25 16:17:00,69.4,47.1,29.67,North,0,3.0,8.0,48,0.00,,,0.00,meteohub,2013-09-25 23:17:00,
2013-09-25 16:22:00,68.7,47.1,29.67,North,0,2.0,8.0,48,0.00,,,0.00,meteohub,2013-09-25 23:22:00,
2013-09-25 16:27:00,69.4,47.1,29.67,North,0,2.0,8.0,48,0.00,,,0.00,meteohub,2013-09-25 23:27:00,
2013-09-25 16:32:00,68.5,46.4,29.67,North,0,4.0,7.0,48,0.00,,,0.00,meteohub,2013-09-25 23:32:00,
2013-09-25 16:37:00,68.2,46.6,29.67,SW,225,5.0,12.0,48,0.00,,,0.00,meteohub,2013-09-25 23:37:00,
2013-09-25 16:42:00,67.6,46.8,29.67,North,0,4.0,12.0,48,0.00,,,0.00,meteohub,2013-09-25 23:42:00,
2013-09-25 16:47:00,66.9,46.0,29.67,North,0,4.0,12.0,47,0.00,,,0.00,meteohub,2013-09-25 23:47:00,
2013-09-25 16:52:00,67.1,46.2,29.67,NE,45,4.0,9.0,47,0.00,,,0.00,meteohub,2013-09-25 23:52:00,
2013-09-25 16:57:00,68.2,46.6,29.67,West,270,2.0,9.0,47,0.00,,,0.00,meteohub,2013-09-25 23:57:00,
2013-09-25 17:02:00,68.2,46.0,29.66,East,90,2.0,8.0,47,0.00,,,0.00,meteohub,2013-09-26 00:02:00,
2013-09-25 17:07:00,67.5,46.6,29.66,NE,45,2.0,6.0,47,0.00,,,0.00,meteohub,2013-09-26 00:07:00,
2013-09-25 17:12:00,66.2,46.4,29.67,West,270,5.0,7.0,47,0.00,,,0.00,meteohub,2013-09-26 00:12:00,
2013-09-25 17:17:00,65.8,46.8,29.66,NE,45,7.0,14.0,47,0.00,,,0.00,meteohub,2013-09-26 00:17:00,
2013-09-25 17:22:00,66.4,47.1,29.66,South,180,4.0,14.0,47,0.00,,,0.00,meteohub,2013-09-26 00:22:00,
2013-09-25 17:27:00,65.8,47.1,29.66,West,270,7.0,14.0,50,0.00,,,0.00,meteohub,2013-09-26 00:27:00,
2013-09-25 17:32:00,65.3,46.8,29.66,North,0,4.0,9.0,48,0.00,,,0.00,meteohub,2013-09-26 00:32:00,
2013-09-25 17:37:00,64.8,46.2,29.66,West,270,3.0,8.0,48,0.00,,,0.00,meteohub,2013-09-26 00:37:00,
2013-09-25 17:42:00,65.8,47.7,29.66,East,90,2.0,8.0,51,0.00,,,0.00,meteohub,2013-09-26 00:42:00,
2013-09-25 17:47:00,66.0,47.8,29.66,South,180,7.0,7.0,48,0.00,,,0.00,meteohub,2013-09-26 00:47:00,
2013-09-25 17:52:00,65.5,46.9,29.66,North,0,2.0,7.0,48,0.00,,,0.00,meteohub,2013-09-26 00:52:00,
2013-09-25 17:57:00,64.8,46.8,29.65,NW,315,4.0,7.0,51,0.00,,,0.00,meteohub,2013-09-26 00:57:00,
2013-09-25 18:02:00,64.8,47.3,29.65,North,0,2.0,7.0,51,0.00,,,0.00,meteohub,2013-09-26 01:02:00,
2013-09-25 18:07:00,64.4,46.9,29.65,NW,315,2.0,4.0,48,0.00,,,0.00,meteohub,2013-09-26 01:07:00,
2013-09-25 18:12:00,63.7,45.7,29.65,North,0,2.0,4.0,51,0.00,,,0.00,meteohub,2013-09-26 01:12:00,
2013-09-25 18:17:00,63.1,45.7,29.65,North,0,2.0,3.0,51,0.00,,,0.00,meteohub,2013-09-26 01:17:00,
2013-09-25 18:22:00,62.8,45.9,29.65,North,0,2.0,3.0,48,0.00,,,0.00,meteohub,2013-09-26 01:22:00,
2013-09-25 18:27:00,62.6,45.7,29.65,North,0,2.0,3.0,48,0.00,,,0.00,meteohub,2013-09-26 01:27:00,
2013-09-25 18:32:00,62.1,45.7,29.65,West,270,0.0,3.0,48,0.00,,,0.00,meteohub,2013-09-26 01:32:00,
2013-09-25 18:37:00,62.1,46.2,29.65,North,0,0.0,4.0,48,0.00,,,0.00,meteohub,2013-09-26 01:37:00,
2013-09-25 18:42:00,61.7,45.9,29.65,NW,315,2.0,4.0,48,0.00,,,0.00,meteohub,2013-09-26 01:42:00,
2013-09-25 18:47:00,61.3,45.5,29.65,North,0,1.0,2.0,48,0.00,,,0.00,meteohub,2013-09-26 01:47:00,
2013-09-25 18:52:00,61.2,45.3,29.65,North,0,2.0,2.0,48,0.00,,,0.00,meteohub,2013-09-26 01:52:00,
2013-09-25 18:57:00,61.0,45.7,29.64,North,0,3.0,3.0,51,0.00,,,0.00,meteohub,2013-09-26 01:57:00,
2013-09-25 19:02:00,60.8,45.5,29.65,West,270,0.0,3.0,49,0.00,,,0.00,meteohub,2013-09-26 02:02:00,
2013-09-25 19:07:00,60.4,46.4,29.65,North,0,2.0,4.0,48,0.00,,,0.00,meteohub,2013-09-26 02:07:00,
2013-09-25 19:12:00,60.3,46.8,29.65,North,0,1.0,4.0,49,0.00,,,0.00,meteohub,2013-09-26 02:12:00,
2013-09-25 19:17:00,60.1,47.5,29.65,NW,315,2.0,4.0,49,0.00,,,0.00,meteohub,2013-09-26 02:17:00,
2013-09-25 19:22:00,59.9,47.3,29.64,North,0,0.0,4.0,49,0.00,,,0.00,meteohub,2013-09-26 02:22:00,
2013-09-25 19:27:00,59.7,47.1,29.64,North,0,0.0,4.0,49,0.00,,,0.00,meteohub,2013-09-26 02:27:00,
2013-09-25 19:32:00,59.5,46.9,29.65,North,0,0.0,4.0,49,0.00,,,0.00,meteohub,2013-09-26 02:32:00,
2013-09-25 19:37:00,59.4,46.8,29.65,North,0,0.0,2.0,49,0.00,,,0.00,meteohub,2013-09-26 02:37:00,
2013-09-25 19:42:00,59.2,46.9,29.65,West,270,2.0,2.0,49,0.00,,,0.00,meteohub,2013-09-26 02:42:00,
2013-09-25 19:47:00,58.8,47.1,29.65,North,0,0.0,2.0,49,0.00,,,0.00,meteohub,2013-09-26 02:47:00,
2013-09-25 19:52:00,58.6,47.3,29.65,North,0,0.0,2.0,51,0.00,,,0.00,meteohub,2013-09-26 02:52:00,
2013-09-25 19:57:00,58.5,47.1,29.65,South,180,4.0,4.0,49,0.00,,,0.00,meteohub,2013-09-26 02:57:00,
2013-09-25 20:02:00,58.5,46.8,29.65,West,270,3.0,4.0,49,0.00,,,0.00,meteohub,2013-09-26 03:02:00,
2013-09-25 20:07:00,58.3,46.6,29.65,South,180,0.0,4.0,49,0.00,,,0.00,meteohub,2013-09-26 03:07:00,
2013-09-25 20:12:00,57.9,46.2,29.65,North,0,0.0,4.0,49,0.00,,,0.00,meteohub,2013-09-26 03:12:00,
2013-09-25 20:17:00,57.7,46.4,29.65,West,270,0.0,4.0,49,0.00,,,0.00,meteohub,2013-09-26 03:17:00,
2013-09-25 20:22:00,57.4,46.0,29.65,East,90,0.0,3.0,51,0.00,,,0.00,meteohub,2013-09-26 03:22:00,
2013-09-25 20:27:00,57.2,46.4,29.65,North,0,0.0,3.0,48,0.00,,,0.00,meteohub,2013-09-26 03:27:00,
2013-09-25 20:32:00,57.0,46.6,29.65,West,270,1.0,2.0,51,0.00,,,0.00,meteohub,2013-09-26 03:32:00,
2013-09-25 20:37:00,56.8,46.4,29.65,NW,315,0.0,2.0,48,0.00,,,0.00,meteohub,2013-09-26 03:37:00,
2013-09-25 20:42:00,56.7,46.2,29.65,West,270,0.0,2.0,48,0.00,,,0.00,meteohub,2013-09-26 03:42:00,
2013-09-25 20:47:00,56.5,46.0,29.65,North,0,0.0,2.0,48,0.00,,,0.00,meteohub,2013-09-26 03:47:00,
2013-09-25 20:52:00,56.5,46.0,29.65,West,270,3.0,3.0,48,0.00,,,0.00,meteohub,2013-09-26 03:52:00,
2013-09-25 20:57:00,56.8,46.0,29.65,NW,315,4.0,4.0,48,0.00,,,0.00,meteohub,2013-09-26 03:57:00,
2013-09-25 21:01:00,57.0,46.2,29.65,North,0,4.0,4.0,48,0.00,,,0.00,meteohub,2013-09-26 04:01:00,
2013-09-25 21:03:00,56.8,46.0,29.65,West,270,2.0,4.0,48,0.00,,,0.00,meteohub,2013-09-26 04:03:00,
2013-09-25 21:04:00,57.0,46.2,29.65,West,270,2.0,4.0,51,0.00,,,0.00,meteohub,2013-09-26 04:04:00,
2013-09-25 21:09:00,57.6,45.9,29.65,North,0,4.0,4.0,48,0.00,,,0.00,meteohub,2013-09-26 04:09:00,
2013-09-25 21:13:00,57.6,45.9,29.64,North,0,3.0,7.0,48,0.00,,,0.00,meteohub,2013-09-26 04:13:00,
2013-09-25 21:18:00,57.7,45.7,29.65,North,0,2.0,7.0,48,0.00,,,0.00,meteohub,2013-09-26 04:18:00,
2013-09-25 21:23:00,57.4,45.7,29.65,North,0,0.0,7.0,48,0.00,,,0.00,meteohub,2013-09-26 04:23:00,
2013-09-25 21:28:00,57.4,45.7,29.65,West,270,4.0,5.0,51,0.00,,,0.00,meteohub,2013-09-26 04:28:00,
2013-09-25 21:33:00,57.6,45.5,29.65,SW,225,3.0,4.0,48,0.00,,,0.00,meteohub,2013-09-26 04:33:00,
2013-09-25 21:39:00,57.6,45.5,29.65,SW,225,4.0,6.0,48,0.00,,,0.00,meteohub,2013-09-26 04:39:00,
2013-09-25 21:44:00,57.7,45.7,29.65,North,0,2.0,6.0,51,0.00,,,0.00,meteohub,2013-09-26 04:44:00,
2013-09-25 21:49:00,57.6,45.5,29.65,North,0,0.0,6.0,49,0.00,,,0.00,meteohub,2013-09-26 04:49:00,
2013-09-25 21:54:00,57.7,45.7,29.65,North,0,2.0,4.0,50,0.00,,,0.00,meteohub,2013-09-26 04:54:00,
2013-09-25 21:59:00,57.4,45.3,29.65,South,180,1.0,3.0,50,0.00,,,0.00,meteohub,2013-09-26 04:59:00,
2013-09-25 22:04:00,57.4,45.3,29.65,North,0,0.0,3.0,52,0.00,,,0.00,meteohub,2013-09-26 05:04:00,
2013-09-25 22:09:00,57.6,45.5,29.65,North,0,2.0,3.0,51,0.00,,,0.00,meteohub,2013-09-26 05:09:00,
2013-09-25 22:14:00,57.4,45.3,29.65,North,0,0.0,2.0,51,0.00,,,0.00,meteohub,2013-09-26 05:14:00,
2013-09-25 22:20:00,57.6,45.5,29.65,West,270,3.0,3.0,52,0.00,,,0.00,meteohub,2013-09-26 05:20:00,
2013-09-25 22:25:00,57.2,45.1,29.65,North,0,0.0,2.0,51,0.00,,,0.00,meteohub,2013-09-26 05:25:00,
2013-09-25 22:30:00,57.0,45.9,29.65,West,270,3.0,3.0,51,0.00,,,0.00,meteohub,2013-09-26 05:30:00,
2013-09-25 22:35:00,57.0,45.9,29.65,West,270,2.0,3.0,51,0.00,,,0.00,meteohub,2013-09-26 05:35:00,
2013-09-25 22:40:00,57.0,45.9,29.65,West,270,2.0,3.0,52,0.00,,,0.00,meteohub,2013-09-26 05:40:00,
2013-09-25 22:45:00,56.8,45.7,29.65,West,270,2.0,3.0,51,0.00,,,0.00,meteohub,2013-09-26 05:45:00,
2013-09-25 22:50:00,57.0,45.9,29.65,South,180,2.0,3.0,51,0.00,,,0.00,meteohub,2013-09-26 05:50:00,
2013-09-25 22:55:00,56.7,45.9,29.65,East,90,0.0,4.0,51,0.00,,,0.00,meteohub,2013-09-26 05:55:00,
2013-09-25 23:00:00,56.1,45.3,29.65,North,0,0.0,4.0,51,0.00,,,0.00,meteohub,2013-09-26 06:00:00,
2013-09-25 23:05:00,56.3,45.5,29.65,North,0,2.0,4.0,51,0.00,,,0.00,meteohub,2013-09-26 06:05:00,
2013-09-25 23:11:00,56.1,45.3,29.65,NE,45,0.0,3.0,51,0.00,,,0.00,meteohub,2013-09-26 06:11:00,
2013-09-25 23:16:00,56.1,45.3,29.65,North,0,2.0,5.0,52,0.00,,,0.00,meteohub,2013-09-26 06:16:00,
2013-09-25 23:21:00,56.3,45.5,29.65,North,0,0.0,5.0,52,0.00,,,0.00,meteohub,2013-09-26 06:21:00,
2013-09-25 23:26:00,56.3,45.9,29.65,West,270,2.0,5.0,52,0.00,,,0.00,meteohub,2013-09-26 06:26:00,
2013-09-25 23:31:00,56.1,45.7,29.65,West,270,2.0,5.0,52,0.00,,,0.00,meteohub,2013-09-26 06:31:00,
2013-09-25 23:36:00,56.1,45.7,29.65,NW,315,2.0,4.0,52,0.00,,,0.00,meteohub,2013-09-26 06:36:00,
2013-09-25 23:41:00,56.1,45.7,29.65,West,270,4.0,6.0,52,0.00,,,0.00,meteohub,2013-09-26 06:41:00,
2013-09-25 23:46:00,55.9,45.5,29.65,East,90,0.0,6.0,52,0.00,,,0.00,meteohub,2013-09-26 06:46:00,
2013-09-25 23:51:00,55.9,45.5,29.65,West,270,2.0,6.0,52,0.00,,,0.00,meteohub,2013-09-26 06:51:00,
2013-09-25 23:56:00,55.9,45.5,29.65,West,270,2.0,4.0,52,0.00,,,0.00,meteohub,2013-09-26 06:56:00,